Latest Coastal Weather Observations for Hogan Island

IDV60701

Issued at 7:22 pm EST Monday 25 September 2017 (issued every 10 minutes, with the page automatically refreshed every 10 minutes)

About coastal observations | Map of coastal stations | Coastal observations for VIC | Marine services | Other Formats
Station Details ID: 200838 Name: HOGAN ISLAND Lat: -39.22 Lon: 146.98 Height: 116.0 m
Data from the previous 72 hours. | See also: Recent months at Hogan Island
Date/Time
EST
Temp
°C
Wind Pressure Rain since
9am
mm
Weather Cloud Vis
km
Sea
Height
m
Swell
Dir  Spd
kts
Gust
kts
hPa Trend Height
m
Period
s
Dir
25/07:00pm 9.2 WSW 37 43 1009.3 - 0.0 - - - - - - -
25/06:32pm 8.7 W 35 45 1009.0 - 0.0 - - - - - - -
25/06:30pm 8.5 WSW 36 45 1008.9 - 0.0 - - - - - - -
25/06:00pm 9.8 W 39 44 1008.1 - 0.0 - - - - - - -
25/05:30pm 10.2 WSW 37 41 1007.7 - 0.0 - - - - - - -
25/05:00pm 10.9 W 38 43 1007.4 - 0.0 - - - - - - -
25/04:30pm 10.7 W 38 43 1006.8 - 0.0 - - - - - - -
25/04:00pm 10.8 W 37 42 1006.5 - 0.0 - - - - - - -
25/03:30pm 11.1 WSW 38 47 1006.3 - 0.0 - - - - - - -
25/03:00pm 11.6 W 35 40 1006.1 - 0.0 - - - - - - -
25/02:30pm 11.6 WSW 33 38 1006.1 - 0.0 - - - - - - -
25/02:00pm 10.4 W 31 37 1006.1 - 0.0 - - - - - - -
25/01:56pm 10.2 W 35 45 1006.1 - 0.0 - - - - - - -
25/01:30pm 11.5 W 33 39 1005.6 - 0.0 - - - - - - -
25/01:00pm 11.5 WSW 33 38 1005.6 - 0.0 - - - - - - -
25/12:30pm 11.8 WSW 34 41 1005.4 - 0.0 - - - - - - -
25/12:00pm 12.2 W 33 38 1005.3 - 0.0 - - - - - - -
25/11:30am 11.8 W 33 38 1004.9 - 0.0 - - - - - - -
25/11:00am 11.6 WSW 30 35 1004.8 - 0.0 - - - - - - -
25/10:30am 11.3 W 34 40 1004.5 - 0.0 - - - - - - -
25/10:15am 9.7 WSW 31 41 1004.3 - 0.0 - - - - - - -
25/10:00am 11.7 W 34 39 1004.1 - 0.0 - - - - - - -
25/09:30am 11.6 W 36 42 1003.8 - 0.0 - - - - - - -
25/09:00am 11.4 W 37 42 1003.2 - 9.0 - - - - - - -
25/08:30am 10.7 WSW 33 39 1002.9 - 9.0 - - - - - - -
25/08:01am 10.6 W 37 47 1002.5 - 9.0 - - - - - - -
25/08:00am 10.6 W 38 47 1002.5 - 9.0 - - - - - - -
25/07:30am 10.5 W 36 43 1001.8 - 9.0 - - - - - - -
25/07:00am 10.1 W 33 40 1002.2 - 9.0 - - - - - - -
25/06:30am 10.1 WSW 33 39 1001.5 - 9.0 - - - - - - -
25/06:00am 9.9 W 37 44 1000.8 - 9.0 - - - - - - -
25/05:30am 10.1 WSW 35 40 1000.2 - 9.0 - - - - - - -
25/05:00am 10.4 W 37 43 999.9 - 9.0 - - - - - - -
25/04:30am 10.5 W 33 39 999.7 - 9.0 - - - - - - -
25/04:00am 10.4 W 31 39 999.4 - 9.0 - - - - - - -
25/03:30am 10.7 W 30 35 999.0 - 9.0 - - - - - - -
25/03:00am 10.9 W 32 38 998.6 - 9.0 - - - - - - -
25/02:33am 10.4 W 38 48 997.9 - 9.0 - - - - - - -
25/02:30am 10.4 W 39 48 997.8 - 8.8 - - - - - - -
25/02:00am 11.3 W 39 45 997.4 - 8.4 - - - - - - -
25/01:30am 11.0 W 42 48 997.2 - 8.4 - - - - - - -
25/01:00am 11.5 W 41 51 996.8 - 7.4 - - - - - - -
25/12:31am 11.7 W 48 58 996.1 - 7.4 - - - - - - -
25/12:30am 11.7 W 49 58 996.1 - 7.4 - - - - - - -
25/12:20am 11.5 WNW 45 56 995.7 - 7.4 - - - - - - -
25/12:00am 11.2 W 44 51 996.2 - 7.2 - - - - - - -
 
Date/Time
EST
Temp
°C
Wind Pressure Rain since
9am
mm
Weather Cloud Vis
km
Sea
Height
m
Swell
Dir  Spd
kts
Gust
kts
hPa Trend Height
m
Period
s
Dir
24/11:30pm 12.4 WNW 45 56 995.2 - 6.2 - - - - - - -
24/11:05pm 12.8 WNW 47 59 994.6 - 6.2 - - - - - - -
24/11:00pm 12.6 WNW 47 55 994.9 - 6.2 - - - - - - -
24/10:30pm 12.8 WNW 49 57 994.7 - 6.2 - - - - - - -
24/10:10pm 13.0 WNW 47 58 994.2 - 6.2 - - - - - - -
24/10:00pm 12.9 WNW 48 55 994.6 - 6.2 - - - - - - -
24/09:54pm 12.9 WNW 49 59 994.7 - 6.2 - - - - - - -
24/09:30pm 13.0 WNW 46 54 994.6 - 6.2 - - - - - - -
24/09:00pm 12.6 WNW 42 50 995.1 - 6.2 - - - - - - -
24/08:54pm 12.7 WNW 39 46 995.3 - 6.2 - - - - - - -
24/08:30pm 12.0 WNW 30 35 995.5 - 6.2 - - - - - - -
24/08:00pm 11.7 WNW 33 40 995.6 - 6.2 - - - - - - -
24/07:49pm 11.4 WNW 27 39 996.0 - 6.0 - - - - - - -
24/07:30pm 11.5 WNW 30 35 995.8 - 6.0 - - - - - - -
24/07:00pm 10.8 WNW 37 43 996.0 - 5.6 - - - - - - -
24/06:58pm 10.6 WNW 38 43 995.8 - 5.4 - - - - - - -
24/06:50pm 11.2 WNW 25 35 996.3 - 4.6 - - - - - - -
24/06:30pm 11.1 WNW 23 28 995.8 - 3.8 - - - - - - -
24/06:00pm 11.3 W 23 25 995.8 - 3.4 - - - - - - -
24/05:30pm 11.3 W 29 34 995.3 - 3.4 - - - - - - -
24/05:01pm 13.5 WNW 30 43 994.9 - 3.4 - - - - - - -
24/05:00pm 13.5 WNW 29 36 994.9 - 3.4 - - - - - - -
24/04:30pm 13.6 WNW 30 37 994.5 - 3.4 - - - - - - -
24/04:10pm 14.0 WNW 30 44 994.3 - 3.4 - - - - - - -
24/04:00pm 13.9 WNW 28 31 994.4 - 3.4 - - - - - - -
24/03:30pm 14.7 WNW 25 27 994.5 - 3.4 - - - - - - -
24/03:00pm 14.8 WNW 23 27 994.8 - 3.4 - - - - - - -
24/02:48pm 14.8 WNW 28 38 995.0 - 3.4 - - - - - - -
24/02:30pm 15.0 WNW 30 35 994.7 - 3.4 - - - - - - -
24/02:00pm 15.0 WNW 33 38 994.7 - 3.4 - - - - - - -
24/01:30pm 14.6 WNW 30 37 995.2 - 3.4 - - - - - - -
24/01:00pm 14.1 WNW 32 40 995.6 - 3.4 - - - - - - -
24/12:30pm 13.3 WNW 31 41 995.6 - 3.4 - - - - - - -
24/12:00pm 13.3 WNW 29 33 996.0 - 3.4 - - - - - - -
24/11:30am 12.3 WNW 29 35 996.0 - 3.4 - - - - - - -
24/11:00am 11.6 WNW 30 36 995.9 - 3.4 - - - - - - -
24/10:30am 10.2 W 30 37 996.1 - 3.4 - - - - - - -
24/10:00am 9.6 W 35 40 995.8 - 3.4 - - - - - - -
24/09:36am 8.8 WNW 40 50 995.4 - 3.0 - - - - - - -
24/09:34am 8.9 WNW 45 50 994.9 - 2.6 - - - - - - -
24/09:32am 10.2 WNW 30 44 995.5 - 2.0 - - - - - - -
24/09:30am 10.6 WNW 29 33 995.6 - 2.0 - - - - - - -
24/09:00am 10.9 WNW 22 26 995.5 - 0.6 - - - - - - -
24/08:30am 12.4 NW 18 23 995.5 - 0.0 - - - - - - -
24/08:00am 12.6 WNW 23 28 995.4 - 0.0 - - - - - - -
24/07:30am 12.3 WNW 28 32 995.1 - 0.0 - - - - - - -
24/07:00am 12.0 WNW 29 34 995.1 - 0.0 - - - - - - -
24/06:30am 12.0 WNW 27 31 995.5 - 0.0 - - - - - - -
24/06:00am 12.1 WNW 32 36 995.4 - 0.0 - - - - - - -
24/05:30am 12.2 WNW 31 35 995.5 - 0.0 - - - - - - -
24/05:00am 12.2 WNW 29 33 995.4 - 0.0 - - - - - - -
24/04:30am 12.7 WNW 33 40 995.1 - 0.0 - - - - - - -
24/04:00am 12.7 WNW 33 41 994.9 - 0.0 - - - - - - -
24/03:30am 12.9 WNW 35 44 994.5 - 0.0 - - - - - - -
24/03:28am 13.0 WNW 34 44 994.4 - 0.0 - - - - - - -
24/03:00am 12.9 WNW 34 39 994.5 - 0.0 - - - - - - -
24/02:30am 12.7 WNW 30 36 994.6 - 0.0 - - - - - - -
24/02:23am 12.8 WNW 34 44 994.7 - 0.0 - - - - - - -
24/02:00am 13.0 WNW 34 40 994.5 - 0.0 - - - - - - -
24/01:30am 13.0 WNW 29 34 995.2 - 0.0 - - - - - - -
24/01:18am 13.0 WNW 27 36 995.3 - 0.0 - - - - - - -
24/01:00am 12.7 WNW 22 25 995.8 - 0.0 - - - - - - -
24/12:30am 12.9 WNW 29 34 995.4 - 0.0 - - - - - - -
24/12:00am 13.1 WNW 33 37 995.1 - 0.0 - - - - - - -
 
Date/Time
EST
Temp
°C
Wind Pressure Rain since
9am
mm
Weather Cloud Vis
km
Sea
Height
m
Swell
Dir  Spd
kts
Gust
kts
hPa Trend Height
m
Period
s
Dir
23/11:30pm 13.2 WNW 29 36 995.4 - 0.0 - - - - - - -
23/11:00pm 13.1 W 34 39 995.3 - 0.0 - - - - - - -
23/10:30pm 13.0 W 33 41 995.3 - 0.0 - - - - - - -
23/10:00pm 12.7 W 31 36 995.3 - 0.0 - - - - - - -
23/09:30pm 12.7 W 33 38 995.2 - 0.0 - - - - - - -
23/09:00pm 12.7 W 30 35 995.0 - 0.0 - - - - - - -
23/08:30pm 12.9 W 34 40 994.5 - 0.0 - - - - - - -
23/08:00pm 13.2 WSW 37 43 993.9 - 0.0 - - - - - - -
23/07:59pm 13.2 WSW 36 43 993.9 - 0.0 - - - - - - -
23/07:30pm 13.5 WSW 46 57 992.6 - 0.0 - - - - - - -
23/07:24pm 13.6 WSW 47 57 992.5 - 0.0 - - - - - - -
23/07:00pm 13.5 WSW 47 54 991.9 - 0.0 - - - - - - -
23/06:43pm 13.7 WSW 52 62 991.0 - 0.0 - - - - - - -
23/06:36pm 14.2 WSW 56 62 990.3 - 0.0 - - - - - - -
23/06:33pm 14.2 W 45 56 990.7 - 0.0 - - - - - - -
23/06:30pm 14.3 W 45 54 990.6 - 0.0 - - - - - - -
23/06:27pm 14.5 W 44 54 990.4 - 0.0 - - - - - - -
23/06:25pm 14.4 W 41 48 990.4 - 0.0 - - - - - - -
23/06:08pm 16.3 W 27 37 989.4 - 0.0 - - - - - - -
23/06:00pm 17.2 WNW 23 29 989.3 - 0.0 - - - - - - -
23/05:48pm 18.4 WNW 18 21 988.9 - 0.0 - - - - - - -
23/05:30pm 14.9 WNW 8 10 988.9 - 0.0 - - - - - - -
23/05:00pm 15.9 NNW 6 8 988.6 - 0.0 - - - - - - -
23/04:30pm 17.4 NE 6 8 988.0 - 0.0 - - - - - - -
23/04:00pm 15.8 ENE 8 11 988.8 - 0.0 - - - - - - -
23/03:30pm 16.4 ESE 9 11 988.8 - 0.0 - - - - - - -
23/03:00pm 17.6 ESE 14 17 988.7 - 0.0 - - - - - - -
23/02:30pm 17.8 ESE 17 19 989.4 - 0.0 - - - - - - -
23/02:00pm 18.0 SSE 15 17 990.4 - 0.0 - - - - - - -
23/01:30pm 18.4 SSE 13 16 991.2 - 0.0 - - - - - - -
23/01:00pm 19.1 SSE 7 9 992.5 - 0.0 - - - - - - -
23/12:30pm 22.3 S 6 9 993.5 - 0.0 - - - - - - -
23/12:00pm 22.2 ESE 3 6 993.9 - 0.0 - - - - - - -
23/11:30am 21.7 NW 3 6 994.6 - 0.0 - - - - - - -
23/11:00am 19.7 NNW 8 11 995.4 - 0.0 - - - - - - -
23/10:30am 17.7 NNW 11 15 996.5 - 0.0 - - - - - - -
23/10:00am 17.9 N 16 19 996.8 - 0.0 - - - - - - -
23/09:33am 16.2 N 19 29 997.3 - 0.0 - - - - - - -
23/09:30am 18.3 N 21 29 997.5 - 0.0 - - - - - - -
23/09:16am 15.0 NNE 15 25 997.8 - 0.0 - - - - - - -
23/09:00am 15.3 NNE 14 19 997.6 - 0.0 - - - - - - -
23/08:46am 15.8 NNE 15 27 998.1 - 0.0 - - - - - - -
23/08:30am 16.2 NNE 12 16 998.3 - 0.0 - - - - - - -
23/08:07am 18.2 N 18 30 998.9 - 0.0 - - - - - - -
23/08:00am 16.6 N 18 24 998.6 - 0.0 - - - - - - -
23/07:30am 15.1 N 17 22 999.1 - 0.0 - - - - - - -
23/07:00am 14.6 NNE 18 20 998.3 - 0.0 - - - - - - -
23/06:30am 14.5 NNE 17 21 998.6 - 0.0 - - - - - - -
23/06:00am 14.8 N 21 24 999.0 - 0.0 - - - - - - -
23/05:30am 14.9 N 19 23 999.5 - 0.0 - - - - - - -
23/05:00am 14.7 N 17 21 999.8 - 0.0 - - - - - - -
23/04:30am 12.6 NNE 15 19 1000.1 - 0.0 - - - - - - -
23/04:00am 12.7 NNE 15 21 1000.5 - 0.0 - - - - - - -
23/03:30am 12.5 NNE 15 19 1000.6 - 0.0 - - - - - - -
23/03:00am 12.6 NE 13 16 1001.7 - 0.0 - - - - - - -
23/02:30am 12.8 NE 13 16 1002.2 - 0.0 - - - - - - -
23/02:00am 12.9 NE 16 19 1002.8 - 0.0 - - - - - - -
23/01:30am 12.8 NE 15 18 1003.5 - 0.0 - - - - - - -
23/01:00am 12.9 NE 16 19 1003.8 - 0.0 - - - - - - -
23/12:30am 12.8 NE 18 21 1004.2 - 0.0 - - - - - - -
23/12:00am 12.6 NE 17 21 1004.5 - 0.0 - - - - - - -
 
Date/Time
EST
Temp
°C
Wind Pressure Rain since
9am
mm
Weather Cloud Vis
km
Sea
Height
m
Swell
Dir  Spd
kts
Gust
kts
hPa Trend Height
m
Period
s
Dir
22/11:30pm 12.4 NE 18 21 1004.7 - 0.0 - - - - - - -
22/11:00pm 12.2 NE 18 20 1005.3 - 0.0 - - - - - - -
22/10:30pm 12.1 NE 17 19 1005.9 - 0.0 - - - - - - -
22/10:00pm 12.0 NE 17 20 1006.2 - 0.0 - - - - - - -
22/09:30pm 11.8 NE 19 21 1006.5 - 0.0 - - - - - - -
22/09:00pm 11.8 NE 18 21 1006.9 - 0.0 - - - - - - -
22/08:30pm 11.6 NE 18 20 1006.9 - 0.0 - - - - - - -
22/08:00pm 11.4 NE 16 17 1007.1 - 0.0 - - - - - - -
22/07:30pm 11.2 ENE 13 14 1007.5 - 0.0 - - - - - - -

Other Formats:

Comma delimited format used in spreadsheet applications
http://www.bom.gov.au/fwo/IDV60701/IDV60701.94949.axf

JavaScript Object Notation format (JSON) in row-major order
http://www.bom.gov.au/fwo/IDV60701/IDV60701.94949.json